Mountain City, Tennessee
Current Conditions -  °F | °C
As of 5:55 PM on Saturday 25 Oct 2014 (Local Time) from KVJI Reporting Station
Broken Clouds Broken Clouds  
Wind Chill: 65°   Ceiling: 4300
Heat Index: 65°   Visibility: 10mi
Dew Point: 47°   Wind: 7mph
Humidity: 52%   Direction: 280°W
Pressure: 30.01"   Gusts: NA
Location:  36.47°N, 81.8°W
Report Text: KVJI 252155Z AUTO 28006KT 10SM BKN043 BKN049 18/09 A3001 RMK AO2 T01840085
Loading
Personal Weather Stations






























Interactive Weather Map
Tropical Storm Tracking
New forecast layout! Learn more

10-Day Weather Forecast

Advertisements
Track Severe Weather on mobile